createdAt,value
2022-12-31T00:01:27.486Z,58.20
2022-12-31T00:03:56.553Z,57.90
2022-12-31T00:06:27.904Z,59.30
2022-12-31T00:08:57.670Z,64.60
2022-12-31T00:11:27.592Z,65.50
2022-12-31T00:13:55.946Z,68.40
2022-12-31T00:16:39.201Z,73.20
2022-12-31T00:19:09.892Z,76.90
2022-12-31T00:21:38.580Z,75.80
2022-12-31T00:24:07.222Z,80.00
2022-12-31T00:26:36.009Z,74.90
2022-12-31T00:29:05.157Z,81.10
2022-12-31T00:31:35.850Z,76.40
2022-12-31T00:34:04.816Z,93.90
2022-12-31T00:36:38.236Z,83.20
2022-12-31T00:39:08.449Z,80.80
2022-12-31T00:41:36.458Z,72.30
2022-12-31T00:44:04.360Z,73.10
2022-12-31T00:46:32.481Z,68.90
2022-12-31T00:49:00.446Z,57.10
2022-12-31T00:51:28.524Z,58.60
2022-12-31T00:53:57.408Z,59.10
2022-12-31T00:56:28.584Z,56.60
2022-12-31T00:58:56.951Z,54.30
2022-12-31T01:01:30.455Z,57.50
2022-12-31T01:04:04.738Z,57.10
2022-12-31T01:06:32.762Z,61.10
2022-12-31T01:09:00.782Z,59.30
2022-12-31T01:11:29.598Z,58.90
2022-12-31T01:14:01.678Z,57.20
2022-12-31T01:16:31.325Z,53.90
2022-12-31T01:19:01.025Z,57.00
2022-12-31T01:21:29.787Z,55.90
2022-12-31T01:23:59.451Z,59.00
2022-12-31T01:26:28.624Z,63.10
2022-12-31T01:28:56.648Z,62.00
2022-12-31T01:31:24.938Z,62.40
2022-12-31T01:33:53.222Z,60.90
2022-12-31T01:36:26.218Z,60.80
2022-12-31T01:38:56.913Z,65.40
2022-12-31T01:41:28.195Z,63.70
2022-12-31T01:44:15.971Z,60.20
2022-12-31T01:46:53.426Z,63.70
2022-12-31T01:49:35.397Z,65.70
2022-12-31T01:52:16.519Z,64.00
2022-12-31T01:54:49.683Z,61.00
2022-12-31T01:57:17.780Z,64.30
2022-12-31T01:59:46.175Z,64.00
2022-12-31T02:02:16.031Z,63.30
2022-12-31T02:04:44.057Z,62.00
2022-12-31T02:07:12.925Z,65.60
2022-12-31T02:09:42.238Z,66.40
2022-12-31T02:12:10.698Z,67.40
2022-12-31T02:14:48.589Z,61.30
2022-12-31T02:17:31.811Z,64.70
2022-12-31T02:20:31.915Z,67.00
2022-12-31T02:23:38.283Z,65.90
2022-12-31T02:26:08.913Z,61.90
2022-12-31T02:29:04.784Z,65.50
2022-12-31T02:31:58.272Z,60.90
2022-12-31T02:34:26.070Z,61.10
2022-12-31T02:36:57.094Z,63.30
2022-12-31T02:39:25.640Z,60.80
2022-12-31T02:41:54.085Z,63.50
2022-12-31T02:44:25.400Z,62.00
2022-12-31T02:47:05.403Z,64.90
2022-12-31T02:50:07.006Z,63.00
2022-12-31T02:52:57.999Z,63.30
2022-12-31T02:55:49.060Z,62.30
2022-12-31T02:58:52.542Z,66.40
2022-12-31T03:01:45.675Z,63.50
2022-12-31T03:04:32.898Z,64.20
2022-12-31T03:07:09.822Z,68.30
2022-12-31T03:09:38.792Z,61.40
2022-12-31T03:12:27.716Z,62.90
2022-12-31T03:14:55.714Z,64.30
2022-12-31T03:17:23.988Z,62.50
2022-12-31T03:20:14.852Z,68.70
2022-12-31T03:22:43.985Z,67.40
2022-12-31T03:25:38.042Z,63.50
2022-12-31T03:28:07.979Z,61.60
2022-12-31T03:30:38.681Z,66.50
2022-12-31T03:33:08.038Z,67.70
2022-12-31T03:35:38.270Z,71.10
2022-12-31T03:38:06.305Z,68.20
2022-12-31T03:40:39.754Z,67.00
2022-12-31T03:43:07.805Z,68.20
2022-12-31T03:45:35.945Z,65.60
2022-12-31T03:48:05.859Z,68.40
2022-12-31T03:50:34.483Z,69.90
2022-12-31T03:53:02.436Z,67.00
2022-12-31T03:55:30.321Z,64.00
2022-12-31T03:57:58.405Z,62.00
2022-12-31T04:00:26.538Z,62.90
2022-12-31T04:02:54.433Z,61.40
2022-12-31T04:05:22.916Z,64.00
2022-12-31T04:07:52.234Z,65.10
2022-12-31T04:10:20.657Z,60.30
2022-12-31T04:12:48.631Z,63.10
2022-12-31T04:15:19.725Z,62.60
2022-12-31T04:17:48.536Z,65.40
2022-12-31T04:20:16.942Z,67.50
2022-12-31T04:22:44.991Z,65.30
2022-12-31T04:25:13.037Z,59.30
2022-12-31T04:27:43.904Z,60.30
2022-12-31T04:30:13.248Z,64.40
2022-12-31T04:32:41.611Z,65.00
2022-12-31T04:35:10.722Z,61.00
2022-12-31T04:37:39.254Z,68.50
2022-12-31T04:40:10.957Z,63.30
2022-12-31T04:42:39.025Z,63.10
2022-12-31T04:45:07.799Z,64.20
2022-12-31T04:47:35.679Z,66.30
2022-12-31T04:50:04.239Z,68.40
2022-12-31T04:52:37.066Z,69.60
2022-12-31T04:55:08.577Z,66.70
2022-12-31T04:57:36.413Z,66.40
2022-12-31T05:00:04.489Z,64.60
2022-12-31T05:02:32.487Z,65.60
2022-12-31T05:05:00.719Z,66.30
2022-12-31T05:07:28.629Z,69.20
2022-12-31T05:09:56.575Z,68.30
2022-12-31T05:12:24.419Z,64.50
2022-12-31T05:14:52.241Z,65.30
2022-12-31T05:17:21.113Z,67.90
2022-12-31T05:19:49.048Z,69.20
2022-12-31T05:22:31.902Z,67.70
2022-12-31T05:25:00.982Z,66.90
2022-12-31T05:27:33.373Z,69.90
2022-12-31T05:30:01.256Z,69.00
2022-12-31T05:32:29.156Z,69.00
2022-12-31T05:34:59.848Z,63.90
2022-12-31T05:37:29.093Z,69.50
2022-12-31T05:39:57.715Z,71.70
2022-12-31T05:42:26.334Z,64.90
2022-12-31T05:44:54.264Z,74.70
2022-12-31T05:47:22.225Z,67.90
2022-12-31T05:49:50.311Z,67.40
2022-12-31T05:52:18.720Z,68.70
2022-12-31T05:54:46.650Z,69.70
2022-12-31T05:57:14.984Z,65.40
2022-12-31T05:59:42.832Z,71.50
2022-12-31T06:02:10.624Z,68.70
2022-12-31T06:04:38.554Z,67.10
2022-12-31T06:07:06.536Z,66.30
2022-12-31T06:09:34.395Z,70.70
2022-12-31T06:12:02.209Z,69.20
2022-12-31T06:14:30.211Z,72.30
2022-12-31T06:16:58.186Z,71.90
2022-12-31T06:19:26.243Z,64.30
2022-12-31T06:21:54.185Z,68.80
2022-12-31T06:24:21.985Z,66.20
2022-12-31T06:26:49.901Z,71.40
2022-12-31T06:29:18.112Z,68.60
2022-12-31T06:31:46.055Z,65.50
2022-12-31T06:34:13.905Z,72.70
2022-12-31T06:36:42.556Z,72.20
2022-12-31T06:39:10.358Z,67.90
2022-12-31T06:41:38.222Z,64.80
2022-12-31T06:44:06.655Z,68.00
2022-12-31T06:46:34.657Z,75.00
2022-12-31T06:49:02.801Z,75.50
2022-12-31T06:51:30.930Z,73.60
2022-12-31T06:53:58.876Z,71.50
2022-12-31T06:56:34.736Z,73.80
2022-12-31T06:59:05.044Z,72.70
2022-12-31T07:02:00.855Z,71.50
2022-12-31T07:04:42.721Z,73.50
2022-12-31T07:07:44.335Z,74.00
2022-12-31T07:10:44.222Z,74.20
2022-12-31T07:13:25.727Z,73.40
2022-12-31T07:16:02.825Z,72.90
2022-12-31T07:18:35.849Z,75.30
2022-12-31T07:21:04.078Z,74.30
2022-12-31T07:23:32.210Z,71.50
2022-12-31T07:26:13.586Z,73.10
2022-12-31T07:29:07.274Z,71.30
2022-12-31T07:31:58.912Z,69.20
2022-12-31T07:34:45.223Z,70.00
2022-12-31T07:37:22.115Z,66.40
2022-12-31T07:39:58.725Z,64.20
2022-12-31T07:42:44.632Z,65.80
2022-12-31T07:45:32.691Z,69.50
2022-12-31T07:48:02.967Z,66.70
2022-12-31T07:50:31.245Z,68.80
2022-12-31T07:52:59.407Z,69.70
2022-12-31T07:55:27.406Z,67.90
2022-12-31T07:58:10.846Z,65.90
2022-12-31T08:00:39.118Z,68.70
2022-12-31T08:03:42.276Z,72.00
2022-12-31T08:06:16.210Z,70.00
2022-12-31T08:11:44.028Z,63.40
2022-12-31T08:14:15.101Z,67.50
2022-12-31T08:16:43.282Z,67.30
2022-12-31T08:19:25.655Z,70.70
2022-12-31T08:22:24.906Z,66.40
2022-12-31T08:25:13.167Z,64.20
2022-12-31T08:27:59.799Z,67.10
2022-12-31T08:30:37.252Z,65.50
2022-12-31T08:33:16.458Z,66.00
2022-12-31T08:36:11.403Z,69.00
2022-12-31T08:39:18.543Z,67.80
2022-12-31T08:41:49.827Z,64.80
2022-12-31T08:44:32.422Z,63.70
2022-12-31T08:47:18.323Z,65.20
2022-12-31T08:49:46.483Z,66.60
2022-12-31T08:52:24.524Z,67.70
2022-12-31T08:54:53.303Z,64.80
2022-12-31T08:57:42.608Z,64.80
2022-12-31T09:00:19.174Z,66.80
2022-12-31T09:03:06.060Z,67.30
2022-12-31T09:05:49.938Z,68.50
2022-12-31T09:08:17.828Z,65.00
2022-12-31T09:11:08.303Z,65.60
2022-12-31T09:13:54.447Z,64.00
2022-12-31T09:16:28.495Z,64.70
2022-12-31T09:18:56.528Z,64.20
2022-12-31T09:21:24.646Z,59.90
2022-12-31T09:23:52.751Z,57.30
2022-12-31T09:26:45.685Z,59.90
2022-12-31T09:29:43.722Z,60.90
2022-12-31T09:33:01.798Z,62.50
2022-12-31T09:36:03.725Z,62.00
2022-12-31T09:38:59.623Z,60.30
2022-12-31T09:41:42.824Z,58.00
2022-12-31T09:44:32.172Z,59.80
2022-12-31T09:47:25.129Z,60.40
2022-12-31T09:50:21.087Z,58.40
2022-12-31T09:53:32.627Z,53.50
2022-12-31T09:56:10.715Z,54.60
2022-12-31T09:59:02.651Z,54.50
2022-12-31T10:01:47.030Z,54.30
2022-12-31T10:04:40.950Z,54.20
2022-12-31T10:07:27.293Z,56.90
2022-12-31T10:10:05.494Z,53.70
2022-12-31T10:12:39.411Z,50.20
2022-12-31T10:15:28.367Z,49.80
2022-12-31T10:18:20.637Z,50.20
2022-12-31T10:21:07.028Z,50.20
2022-12-31T10:24:02.622Z,53.60
2022-12-31T10:27:09.049Z,49.70
2022-12-31T10:30:02.137Z,48.00
2022-12-31T10:32:36.676Z,49.10
2022-12-31T10:35:26.457Z,47.00
2022-12-31T10:38:09.666Z,43.70
2022-12-31T10:41:11.179Z,46.60
2022-12-31T10:43:50.819Z,46.30
2022-12-31T10:46:36.931Z,46.10
2022-12-31T10:49:07.855Z,44.30
2022-12-31T10:52:04.067Z,43.90
2022-12-31T10:54:48.825Z,43.00
2022-12-31T10:58:05.210Z,45.90
2022-12-31T11:00:51.375Z,42.30
2022-12-31T11:03:44.947Z,42.40
2022-12-31T11:06:57.741Z,42.20
2022-12-31T11:10:02.948Z,41.20
2022-12-31T11:12:53.331Z,43.70
2022-12-31T11:15:21.364Z,47.40
2022-12-31T11:18:07.514Z,44.00
2022-12-31T11:21:06.686Z,46.50
2022-12-31T11:23:58.603Z,46.10
2022-12-31T11:26:47.403Z,48.70
2022-12-31T11:29:23.605Z,49.00
2022-12-31T11:32:14.054Z,51.70
2022-12-31T11:35:04.479Z,50.80
2022-12-31T11:37:52.229Z,49.80
2022-12-31T11:40:33.616Z,51.80
2022-12-31T11:43:38.688Z,53.10
2022-12-31T11:46:15.722Z,54.40
2022-12-31T11:49:11.703Z,55.70
2022-12-31T11:51:58.774Z,54.90
2022-12-31T11:55:01.358Z,55.20
2022-12-31T11:57:37.933Z,56.50
2022-12-31T12:00:24.633Z,58.40
2022-12-31T12:03:01.231Z,55.20
2022-12-31T12:05:29.885Z,53.60
2022-12-31T12:07:57.793Z,53.00
2022-12-31T12:10:35.744Z,51.10
2022-12-31T12:13:34.231Z,52.40
2022-12-31T12:16:06.372Z,51.40
2022-12-31T12:18:46.320Z,52.50
2022-12-31T12:21:19.116Z,47.50
2022-12-31T12:24:03.379Z,44.80
2022-12-31T12:29:30.309Z,42.70
2022-12-31T12:32:05.840Z,41.80
2022-12-31T12:34:38.036Z,44.90
2022-12-31T12:37:25.295Z,42.10
2022-12-31T12:40:01.022Z,41.80
2022-12-31T12:42:29.937Z,41.30
2022-12-31T12:45:22.529Z,43.00
2022-12-31T12:48:02.416Z,42.00
2022-12-31T12:50:45.252Z,41.90
2022-12-31T12:53:47.816Z,40.60
2022-12-31T12:56:56.513Z,42.50
2022-12-31T12:59:46.153Z,38.70
2022-12-31T13:02:24.759Z,41.40
2022-12-31T13:05:31.669Z,39.70
2022-12-31T13:08:09.057Z,37.60
2022-12-31T13:10:36.870Z,37.90
2022-12-31T13:13:24.931Z,38.50
2022-12-31T13:16:11.167Z,37.20
2022-12-31T13:18:53.014Z,36.10
2022-12-31T13:21:45.081Z,35.10
2022-12-31T13:24:25.083Z,34.60
2022-12-31T13:27:07.975Z,35.00
2022-12-31T13:29:37.596Z,32.30
2022-12-31T13:32:10.993Z,31.50
2022-12-31T13:34:41.710Z,33.50
2022-12-31T13:37:36.702Z,31.70
2022-12-31T13:40:21.314Z,32.40
2022-12-31T13:42:57.069Z,32.50
2022-12-31T13:45:32.908Z,31.40
2022-12-31T13:48:07.381Z,29.70
2022-12-31T13:50:47.826Z,31.60
2022-12-31T13:53:59.962Z,30.70
2022-12-31T13:56:33.948Z,31.30
2022-12-31T13:59:11.499Z,30.00
2022-12-31T14:01:48.789Z,30.00
2022-12-31T14:04:34.603Z,30.70
2022-12-31T14:07:10.040Z,30.30
2022-12-31T14:09:38.432Z,31.90
2022-12-31T14:12:29.363Z,31.10
2022-12-31T14:15:07.249Z,31.30
2022-12-31T14:17:57.661Z,30.80
2022-12-31T14:20:35.228Z,31.20
2022-12-31T14:23:24.556Z,31.20
2022-12-31T14:26:43.685Z,30.10
2022-12-31T14:29:11.490Z,29.90
2022-12-31T14:31:48.651Z,30.40
2022-12-31T14:34:34.670Z,30.80
2022-12-31T14:37:14.535Z,32.50
2022-12-31T14:40:13.400Z,31.50
2022-12-31T14:42:57.070Z,30.20
2022-12-31T14:45:40.141Z,32.70
2022-12-31T14:48:25.791Z,35.10
2022-12-31T14:50:53.984Z,35.30
2022-12-31T14:53:27.565Z,34.00
2022-12-31T14:56:07.595Z,35.40
2022-12-31T14:58:42.655Z,35.70
2022-12-31T15:01:17.641Z,38.70
2022-12-31T15:03:46.468Z,36.60
2022-12-31T15:06:23.696Z,37.40
2022-12-31T15:09:08.273Z,38.00
2022-12-31T15:11:46.271Z,37.60
2022-12-31T15:14:26.282Z,39.20
2022-12-31T15:17:12.761Z,37.70
2022-12-31T15:20:18.240Z,35.50
2022-12-31T15:22:50.862Z,34.30
2022-12-31T15:25:40.064Z,34.50
2022-12-31T15:28:36.572Z,35.30
2022-12-31T15:31:19.128Z,34.10
2022-12-31T15:34:02.794Z,31.30
2022-12-31T15:36:38.219Z,33.90
2022-12-31T15:39:08.065Z,33.40
2022-12-31T15:42:27.600Z,33.90
2022-12-31T15:45:00.344Z,36.70
2022-12-31T15:47:33.826Z,33.90
2022-12-31T15:50:07.732Z,34.20
2022-12-31T15:52:57.208Z,32.70
2022-12-31T15:55:42.465Z,32.20
2022-12-31T15:58:14.191Z,34.10
2022-12-31T16:01:09.921Z,34.30
2022-12-31T16:03:44.038Z,34.70
2022-12-31T16:08:46.222Z,32.50
2022-12-31T16:11:15.802Z,33.00
2022-12-31T16:13:50.407Z,33.00
2022-12-31T16:16:26.493Z,33.00
2022-12-31T16:18:55.767Z,34.10
2022-12-31T16:21:32.789Z,33.00
2022-12-31T16:25:19.483Z,32.30
2022-12-31T16:27:34.576Z,31.00
2022-12-31T16:30:08.585Z,33.90
2022-12-31T16:32:40.286Z,32.60
2022-12-31T16:35:31.671Z,32.70
2022-12-31T16:38:04.180Z,32.90
2022-12-31T16:40:32.107Z,36.60
2022-12-31T16:43:00.692Z,34.40
2022-12-31T16:45:36.543Z,34.20
2022-12-31T16:48:17.459Z,34.90
2022-12-31T16:50:49.323Z,35.20
2022-12-31T16:53:21.107Z,31.70
2022-12-31T16:56:00.791Z,31.70
2022-12-31T16:58:32.126Z,30.20
2022-12-31T17:01:16.129Z,32.40
2022-12-31T17:03:51.173Z,32.70
2022-12-31T17:06:21.358Z,31.50
2022-12-31T17:08:55.686Z,30.10
2022-12-31T17:11:51.927Z,29.70
2022-12-31T17:14:26.586Z,31.00
2022-12-31T17:17:02.204Z,31.40
2022-12-31T17:19:51.265Z,32.20
2022-12-31T17:22:34.592Z,31.00
2022-12-31T17:25:25.416Z,31.50
2022-12-31T17:28:03.913Z,32.10
2022-12-31T17:30:35.249Z,29.30
2022-12-31T17:33:24.971Z,29.20
2022-12-31T17:36:12.430Z,28.90
2022-12-31T17:38:40.467Z,27.70
2022-12-31T17:41:08.254Z,30.00
2022-12-31T17:43:38.179Z,29.90
2022-12-31T17:46:16.131Z,31.40
2022-12-31T17:48:46.245Z,27.70
2022-12-31T17:51:14.150Z,31.90
2022-12-31T17:53:42.275Z,31.60
2022-12-31T17:56:18.169Z,30.40
2022-12-31T17:58:50.622Z,31.00
2022-12-31T18:01:22.254Z,31.60
2022-12-31T18:03:50.488Z,29.80
2022-12-31T18:06:21.473Z,30.70
2022-12-31T18:08:49.314Z,29.20
2022-12-31T18:11:22.223Z,31.40
2022-12-31T18:13:50.919Z,31.40
2022-12-31T18:16:18.811Z,34.20
2022-12-31T18:18:46.795Z,36.00
2022-12-31T18:21:29.171Z,38.20
2022-12-31T18:26:24.799Z,33.70
2022-12-31T18:28:53.068Z,36.30
2022-12-31T18:31:29.711Z,35.10
2022-12-31T18:33:59.173Z,33.60
2022-12-31T18:36:28.704Z,34.10
2022-12-31T18:38:56.674Z,33.00
2022-12-31T18:41:27.940Z,35.00
2022-12-31T18:43:55.964Z,33.50
2022-12-31T18:46:25.255Z,33.50
2022-12-31T18:48:53.243Z,31.20
2022-12-31T18:51:31.029Z,32.40
2022-12-31T18:54:01.389Z,34.10
2022-12-31T18:56:29.443Z,33.50
2022-12-31T18:58:57.279Z,34.30
2022-12-31T19:01:38.351Z,34.10
2022-12-31T19:04:22.855Z,34.90
2022-12-31T19:06:54.916Z,34.60
2022-12-31T19:09:58.115Z,33.80
2022-12-31T19:12:13.609Z,34.20
2022-12-31T19:14:41.633Z,34.30
2022-12-31T19:17:12.655Z,33.80
2022-12-31T19:19:40.596Z,32.60
2022-12-31T19:22:15.425Z,31.80
2022-12-31T19:24:43.296Z,33.30
2022-12-31T19:27:14.786Z,35.00
2022-12-31T19:29:42.653Z,33.80
2022-12-31T19:32:10.555Z,34.50
2022-12-31T19:34:40.589Z,35.90
2022-12-31T19:37:15.146Z,35.50
2022-12-31T19:39:42.951Z,35.70
2022-12-31T19:42:16.325Z,35.80
2022-12-31T19:44:44.161Z,34.80
2022-12-31T19:47:13.605Z,37.90
2022-12-31T19:49:43.957Z,37.30
2022-12-31T19:52:11.888Z,38.00
2022-12-31T19:54:39.800Z,36.80
2022-12-31T19:57:07.655Z,37.50
2022-12-31T19:59:35.597Z,39.10
2022-12-31T20:02:03.508Z,40.50
2022-12-31T20:04:31.485Z,40.80
2022-12-31T20:06:59.300Z,38.80
2022-12-31T20:09:27.117Z,40.60
2022-12-31T20:11:55.683Z,41.60
2022-12-31T20:14:23.516Z,41.30
2022-12-31T20:16:52.683Z,40.20
2022-12-31T20:19:20.566Z,41.20
2022-12-31T20:21:48.421Z,41.10
2022-12-31T20:24:16.328Z,40.10
2022-12-31T20:26:44.244Z,38.30
2022-12-31T20:29:12.102Z,39.80
2022-12-31T20:31:39.964Z,39.20
2022-12-31T20:34:10.129Z,39.20
2022-12-31T20:36:39.075Z,39.90
2022-12-31T20:39:07.349Z,39.00
2022-12-31T20:41:35.233Z,38.30
2022-12-31T20:44:03.766Z,38.00
2022-12-31T20:46:31.793Z,38.50
2022-12-31T20:49:01.731Z,36.50
2022-12-31T20:51:32.137Z,36.60
2022-12-31T20:54:07.011Z,37.30
2022-12-31T20:56:38.035Z,36.40
2022-12-31T20:59:06.891Z,34.40
2022-12-31T21:02:11.097Z,35.60
2022-12-31T21:04:23.051Z,36.00
2022-12-31T21:06:52.273Z,35.10
2022-12-31T21:09:20.122Z,35.50
2022-12-31T21:12:06.846Z,35.40
2022-12-31T21:14:37.421Z,37.00
2022-12-31T21:17:07.772Z,35.80
2022-12-31T21:19:35.664Z,35.60
2022-12-31T21:22:03.596Z,34.60
2022-12-31T21:24:31.369Z,36.40
2022-12-31T21:26:59.254Z,34.10
2022-12-31T21:29:31.354Z,34.30
2022-12-31T21:32:03.019Z,34.10
2022-12-31T21:34:30.969Z,34.30
2022-12-31T21:36:58.802Z,35.10
2022-12-31T21:39:26.671Z,32.70
2022-12-31T21:41:54.723Z,36.20
2022-12-31T21:44:25.550Z,37.10
2022-12-31T21:47:34.907Z,37.40
2022-12-31T21:50:04.685Z,34.30
2022-12-31T21:52:34.116Z,35.60
2022-12-31T21:55:23.107Z,35.60
2022-12-31T21:58:24.692Z,45.80
2022-12-31T22:00:58.696Z,43.60
2022-12-31T22:03:31.807Z,39.60
2022-12-31T22:06:10.349Z,42.90
2022-12-31T22:08:40.437Z,40.20
2022-12-31T22:11:09.303Z,44.90
2022-12-31T22:13:38.265Z,46.30
2022-12-31T22:16:07.447Z,41.50
2022-12-31T22:18:38.926Z,38.40
2022-12-31T22:21:19.458Z,37.40
2022-12-31T22:23:50.185Z,38.20
2022-12-31T22:26:21.330Z,38.50
2022-12-31T22:28:50.132Z,38.10
2022-12-31T22:31:21.036Z,40.30
2022-12-31T22:33:49.269Z,35.10
2022-12-31T22:36:19.863Z,33.80
2022-12-31T22:38:48.810Z,33.30
2022-12-31T22:41:22.156Z,34.10
2022-12-31T22:43:57.217Z,33.70
2022-12-31T22:46:31.623Z,34.00
2022-12-31T22:49:00.944Z,34.50
2022-12-31T22:51:54.715Z,34.30
2022-12-31T22:54:18.206Z,34.60
2022-12-31T22:56:46.187Z,34.90
2022-12-31T22:59:13.993Z,33.90
2022-12-31T23:01:41.973Z,34.60
2022-12-31T23:04:10.005Z,33.20
2022-12-31T23:06:43.727Z,32.50
2022-12-31T23:09:32.479Z,31.80
2022-12-31T23:12:01.165Z,30.90
2022-12-31T23:14:47.761Z,29.10
2022-12-31T23:17:41.879Z,30.30
2022-12-31T23:20:40.825Z,30.50
2022-12-31T23:23:13.904Z,30.40
2022-12-31T23:25:46.515Z,29.50
2022-12-31T23:28:17.701Z,29.60
2022-12-31T23:30:45.809Z,30.00
2022-12-31T23:33:17.644Z,30.90
2022-12-31T23:35:46.392Z,28.70
2022-12-31T23:38:16.881Z,30.50
2022-12-31T23:40:45.269Z,31.00
2022-12-31T23:43:21.459Z,30.40
2022-12-31T23:45:52.757Z,29.40
2022-12-31T23:48:20.744Z,30.20
2022-12-31T23:50:53.952Z,34.00
2022-12-31T23:53:24.862Z,29.60
2022-12-31T23:55:53.352Z,32.50
2022-12-31T23:58:21.856Z,31.60
